Time;durP1;ratioP1;P1;durP2;ratioP2;P2;SDS_P1;SDS_P2;PMS_P1;PMS_P2;Temp;Humidity;BMP_temperature;BMP_pressure;BME280_temperature;BME280_humidity;BME280_pressure;Samples;Min_cycle;Max_cycle;Signal;HPM_P1;HPM_P2
2021/07/11 00:01:17;;;;;;;6.05;3.97;;;19.50;77.90;;;18.74;74.04;96007.50;5025471;28;20067;-67
2021/07/11 00:03:43;;;;;;;3.92;3.30;;;19.40;77.70;;;18.69;73.89;96004.75;5045391;28;20511;-67
2021/07/11 00:06:08;;;;;;;3.58;3.20;;;19.40;77.50;;;18.64;73.89;96013.47;5049030;28;20033;-68
2021/07/11 00:08:34;;;;;;;3.38;2.78;;;19.30;77.30;;;18.61;73.43;96013.94;5064747;28;20060;-67
2021/07/11 00:11:00;;;;;;;4.82;3.40;;;19.30;76.90;;;18.59;73.50;96032.00;5052228;28;20142;-67
2021/07/11 00:13:26;;;;;;;6.57;4.95;;;19.40;76.80;;;18.60;73.74;96034.44;5035092;28;20044;-67
2021/07/11 00:15:51;;;;;;;15.70;13.77;;;19.50;76.70;;;18.64;74.43;96034.78;5038761;28;20029;-68
2021/07/11 00:18:17;;;;;;;5.20;4.47;;;19.50;76.10;;;18.63;72.91;96035.84;5046224;28;20037;-67
2021/07/11 00:20:43;;;;;;;3.20;2.70;;;19.40;75.30;;;18.62;73.43;96047.50;5052089;28;20021;-67
2021/07/11 00:23:09;;;;;;;2.72;2.20;;;19.50;75.50;;;18.59;72.44;96045.34;5067313;28;20037;-67
2021/07/11 00:25:34;;;;;;;1.98;1.55;;;19.40;75.50;;;18.49;71.48;96040.63;5053388;28;20025;-67
2021/07/11 00:28:00;;;;;;;1.65;1.30;;;19.00;72.70;;;18.34;71.12;96041.19;5058593;28;20041;-67
2021/07/11 00:30:26;;;;;;;2.13;1.23;;;18.90;71.10;;;18.24;70.35;96037.50;5063765;28;20145;-67
2021/07/11 00:32:54;;;;;;;1.67;1.25;;;18.80;71.40;;;18.15;70.64;96039.75;5059052;28;20475;-67
2021/07/11 00:35:19;;;;;;;3.72;1.90;;;18.80;72.50;;;18.04;71.30;96040.59;5061946;28;20040;-67
2021/07/11 00:37:45;;;;;;;6.10;4.65;;;18.50;73.80;;;17.93;70.58;96052.09;5037170;28;20115;-67
2021/07/11 00:40:12;;;;;;;2.58;1.60;;;18.50;74.60;;;17.78;71.57;96043.78;5065930;28;20123;-67
2021/07/11 00:42:38;;;;;;;2.38;1.48;;;18.30;75.50;;;17.69;71.77;96049.50;5034373;28;20596;-67
2021/07/11 00:45:05;;;;;;;3.95;1.27;;;18.20;75.80;;;17.57;72.24;96051.31;5047564;28;20112;-67
2021/07/11 00:47:30;;;;;;;3.88;2.72;;;18.10;76.30;;;17.47;72.01;96061.75;5063282;28;20056;-67
2021/07/11 00:49:56;;;;;;;2.00;1.65;;;18.00;76.60;;;17.41;73.02;96052.03;5034159;28;20053;-66
2021/07/11 00:52:22;;;;;;;2.38;1.60;;;18.00;77.00;;;17.31;72.95;96051.81;5049548;28;20060;-67
2021/07/11 00:54:48;;;;;;;1.88;1.42;;;17.80;77.70;;;17.24;72.83;96061.78;5065210;28;20040;-67
2021/07/11 00:57:13;;;;;;;4.35;1.50;;;17.90;77.50;;;17.23;73.09;96065.47;4995117;28;20057;-67
2021/07/11 00:59:39;;;;;;;2.53;1.83;;;18.00;77.20;;;17.17;72.97;96066.38;5050284;28;20037;-67
2021/07/11 01:02:26;;;;;;;3.08;2.33;;;17.90;77.20;;;17.10;74.32;96072.63;5032016;28;20535;-68
2021/07/11 01:05:09;;;;;;;4.22;3.60;;;17.80;77.20;;;17.04;75.12;96072.72;5045764;28;20140;-67
2021/07/11 01:07:48;;;;;;;3.17;1.80;;;17.70;77.70;;;17.00;74.79;96072.38;5024382;28;20033;-67
2021/07/11 01:10:38;;;;;;;2.47;1.48;;;17.70;78.00;;;16.94;74.81;96073.28;5032554;28;20026;-68
2021/07/11 01:13:06;;;;;;;2.45;1.85;;;17.60;78.20;;;16.89;73.81;96070.50;5066855;28;20064;-66
2021/07/11 01:15:32;;;;;;;3.20;1.60;;;17.60;78.30;;;16.87;74.59;96077.91;5036115;28;20029;-67
2021/07/11 01:18:02;;;;;;;2.22;1.33;;;17.60;78.40;;;16.88;74.79;96079.53;5029176;28;20520;-67
2021/07/11 01:20:56;;;;;;;2.20;1.55;;;17.70;78.30;;;16.89;76.19;96081.13;5037445;28;20202;-66
2021/07/11 01:23:44;;;;;;;2.90;1.63;;;17.70;78.40;;;16.83;75.92;96076.75;5061443;28;20496;-67
2021/07/11 01:26:12;;;;;;;2.33;1.65;;;17.60;78.80;;;16.80;75.56;96083.34;5036191;28;20501;-67
2021/07/11 01:28:37;;;;;;;2.78;1.40;;;17.60;78.90;;;16.78;74.84;96082.75;5048932;28;20120;-67
2021/07/11 01:31:03;;;;;;;2.35;1.77;;;17.60;79.10;;;16.79;74.82;96091.53;5044263;28;20069;-67
2021/07/11 01:33:30;;;;;;;3.25;1.58;;;17.60;78.90;;;16.77;75.07;96088.28;5050565;28;20079;-66
2021/07/11 01:35:56;;;;;;;3.28;1.50;;;17.60;78.90;;;16.75;75.35;96090.38;5058010;22;20067;-71
2021/07/11 01:38:22;;;;;;;2.13;1.58;;;17.60;78.70;;;16.72;75.36;96096.09;4999523;28;20038;-72
2021/07/11 01:40:48;;;;;;;3.70;1.60;;;17.50;78.50;;;16.69;74.87;96096.56;4952749;28;20041;-72
2021/07/11 01:43:17;;;;;;;2.13;1.48;;;17.50;78.90;;;16.64;75.20;96093.75;4954784;28;20027;-71
2021/07/11 01:45:42;;;;;;;2.22;1.50;;;17.30;79.10;;;16.58;75.22;96097.34;4974013;28;20046;-72
2021/07/11 01:48:08;;;;;;;1.60;1.35;;;17.30;79.10;;;16.54;75.08;96092.47;4963831;28;20510;-71
2021/07/11 01:50:34;;;;;;;1.50;1.20;;;17.40;79.10;;;16.57;75.40;96087.75;4978632;28;20042;-71
2021/07/11 01:52:59;;;;;;;2.08;1.45;;;17.50;78.90;;;16.59;75.32;96085.66;4958444;28;20133;-72
2021/07/11 01:55:26;;;;;;;2.55;1.70;;;17.60;78.80;;;16.60;75.78;96085.44;4987947;28;20041;-71
2021/07/11 01:57:52;;;;;;;2.10;1.30;;;17.50;79.00;;;16.59;76.26;96090.97;4969982;28;20513;-72
2021/07/11 02:00:18;;;;;;;2.58;1.50;;;17.40;79.30;;;16.56;76.22;96086.94;4959415;28;20045;-72
2021/07/11 02:02:48;;;;;;;2.55;1.63;;;17.50;79.50;;;16.53;76.32;96082.88;5009920;28;20034;-72
2021/07/11 02:05:14;;;;;;;3.13;1.40;;;17.40;79.60;;;16.53;76.12;96088.19;4973051;28;20566;-71
2021/07/11 02:07:40;;;;;;;3.85;1.58;;;17.50;79.50;;;16.50;76.01;96083.31;4984830;28;20038;-71
2021/07/11 02:10:14;;;;;;;3.15;1.48;;;17.40;79.70;;;16.50;77.67;96082.50;4973478;28;20045;-72
2021/07/11 02:12:53;;;;;;;3.38;1.63;;;17.40;80.00;;;16.45;77.58;96077.88;4980885;28;20039;-72
2021/07/11 02:15:19;;;;;;;3.10;1.27;;;17.20;80.30;;;16.41;76.26;96074.06;4957905;28;20406;-72
2021/07/11 02:17:48;;;;;;;2.63;1.13;;;17.10;80.30;;;16.38;77.53;96077.19;4990138;28;20038;-72
2021/07/11 02:20:14;;;;;;;2.88;1.38;;;17.10;80.40;;;16.38;76.67;96079.84;4974674;28;20121;-71
2021/07/11 02:22:45;;;;;;;2.50;1.30;;;17.20;80.30;;;16.34;78.04;96083.97;4977341;28;20506;-72
2021/07/11 02:25:11;;;;;;;;;;;17.20;80.20;;;16.36;78.15;96097.03;5010096;28;20036;-72
2021/07/11 02:27:37;;;;;;;1.73;1.17;;;17.20;79.80;;;16.32;77.31;96083.41;5003118;28;20036;-72
2021/07/11 02:30:10;;;;;;;2.20;1.17;;;17.10;80.10;;;16.31;77.34;96084.44;4992328;28;20652;-72
2021/07/11 02:32:36;;;;;;;2.60;1.10;;;17.20;79.80;;;16.30;76.30;96082.81;4993902;28;20034;-71
2021/07/11 02:35:04;;;;;;;2.45;1.30;;;17.20;79.10;;;16.30;76.91;96085.47;4974027;28;20073;-72
2021/07/11 02:37:31;;;;;;;1.80;0.95;;;17.10;79.30;;;16.27;76.76;96082.41;4989667;28;20170;-71
2021/07/11 02:39:57;;;;;;;1.83;1.08;;;17.10;79.00;;;16.19;77.08;96081.72;4994667;28;20038;-71
2021/07/11 02:42:22;;;;;;;1.50;1.17;;;17.00;78.90;;;16.20;75.83;96077.22;5006537;28;20080;-72
2021/07/11 02:44:51;;;;;;;2.65;1.13;;;17.10;78.80;;;16.17;75.91;96077.66;4961158;28;20145;-72
2021/07/11 02:47:21;;;;;;;2.80;0.98;;;17.00;78.80;;;16.15;76.90;96079.75;4964719;28;20141;-72
2021/07/11 02:49:49;;;;;;;1.75;1.08;;;17.00;78.90;;;16.11;76.01;96091.84;5013662;28;20034;-72
2021/07/11 02:52:15;;;;;;;1.85;1.00;;;16.90;78.80;;;16.07;76.17;96088.00;4967676;28;20128;-71
2021/07/11 02:54:53;;;;;;;2.33;0.93;;;16.90;78.90;;;16.06;75.93;96091.66;4967616;28;20560;-72
2021/07/11 02:57:21;;;;;;;1.50;1.00;;;16.90;78.80;;;16.01;75.66;96100.31;4981790;28;20525;-71
2021/07/11 02:59:47;;;;;;;2.90;1.00;;;16.80;79.10;;;15.96;75.83;96109.97;4975851;28;20479;-72
2021/07/11 03:02:13;;;;;;;1.33;0.90;;;16.60;79.30;;;15.92;76.64;96097.16;5004779;28;20030;-72
2021/07/11 03:04:39;;;;;;;1.85;1.00;;;16.70;79.40;;;15.91;76.52;96111.47;4987533;28;20042;-72
2021/07/11 03:07:06;;;;;;;3.20;1.20;;;16.70;79.50;;;15.89;76.40;96115.38;4973478;28;20057;-72
2021/07/11 03:09:32;;;;;;;1.67;1.02;;;16.70;79.50;;;15.85;76.66;96109.69;4981816;28;20042;-72
2021/07/11 03:11:57;;;;;;;1.00;0.90;;;16.70;79.10;;;15.84;76.36;96115.19;4975494;28;20033;-72
2021/07/11 03:14:23;;;;;;;1.55;1.05;;;16.60;79.10;;;15.76;76.46;96108.34;4970836;28;20026;-72
2021/07/11 03:16:53;;;;;;;1.77;0.77;;;16.50;79.40;;;15.70;75.94;96103.94;4975184;28;20116;-72
2021/07/11 03:19:19;;;;;;;0.80;0.60;;;16.50;79.00;;;15.69;76.44;96098.84;4984187;28;20037;-71
2021/07/11 03:21:45;;;;;;;0.93;0.70;;;16.50;79.00;;;15.70;76.20;96103.94;4970556;28;20035;-72
2021/07/11 03:24:11;;;;;;;1.20;0.77;;;16.60;78.60;;;15.66;76.38;96113.38;4974225;28;20045;-72
2021/07/11 03:26:39;;;;;;;2.25;0.80;;;16.50;78.70;;;15.61;75.56;96108.72;4974028;28;20157;-72
2021/07/11 03:29:07;;;;;;;0.80;0.60;;;16.50;78.60;;;15.58;76.23;96116.25;4971186;28;20031;-72
2021/07/11 03:31:33;;;;;;;1.08;0.60;;;16.40;78.30;;;15.56;75.89;96110.38;4992101;28;20052;-72
2021/07/11 03:33:58;;;;;;;0.77;0.60;;;16.40;78.60;;;15.52;76.05;96107.34;4973460;28;20037;-73
2021/07/11 03:36:24;;;;;;;0.95;0.52;;;16.40;78.50;;;15.50;75.30;96108.59;5005719;28;20030;-71
2021/07/11 03:38:58;;;;;;;1.70;0.60;;;16.30;78.50;;;15.50;76.36;96106.75;4975183;28;20118;-71
2021/07/11 03:41:28;;;;;;;1.95;0.50;;;16.40;78.30;;;15.52;75.45;96103.88;4990518;28;20038;-72
2021/07/11 03:43:56;;;;;;;1.43;0.50;;;16.40;77.90;;;15.50;75.33;96108.59;4991968;28;20081;-72
2021/07/11 03:46:24;;;;;;;1.13;0.75;;;16.40;78.40;;;15.51;76.54;96100.44;4972026;28;20298;-71
2021/07/11 03:48:58;;;;;;;0.95;0.70;;;16.50;78.50;;;15.47;76.52;96093.94;4986070;28;20036;-71
2021/07/11 03:51:28;;;;;;;1.13;0.60;;;16.40;78.70;;;15.47;77.24;96093.16;4997835;28;20033;-71
2021/07/11 03:53:55;;;;;;;2.05;0.60;;;16.40;79.30;;;15.44;76.71;96098.88;4967930;28;20721;-72
2021/07/11 03:56:24;;;;;;;1.02;0.50;;;16.20;79.90;;;15.39;77.46;96091.59;4991671;28;20109;-72
2021/07/11 03:58:49;;;;;;;1.63;0.73;;;16.20;80.20;;;15.36;77.65;96092.00;4971742;28;20080;-72
2021/07/11 04:01:15;;;;;;;0.90;0.60;;;16.20;80.50;;;15.38;77.16;96091.78;4954533;28;20433;-71
2021/07/11 04:03:41;;;;;;;2.25;0.90;;;16.40;80.70;;;15.36;77.54;96091.19;4964970;28;20547;-71
2021/07/11 04:06:12;;;;;;;1.73;0.68;;;16.30;80.50;;;15.35;78.13;96094.88;5007746;28;20139;-71
2021/07/11 04:08:38;;;;;;;1.95;0.75;;;16.40;80.90;;;15.35;78.13;96092.22;4991271;28;20080;-71
2021/07/11 04:11:04;;;;;;;1.38;0.60;;;16.40;80.90;;;15.34;77.83;96088.78;4970428;28;20489;-71
2021/07/11 04:13:30;;;;;;;2.63;0.55;;;16.50;80.80;;;15.37;78.61;96092.81;4989183;28;20204;-72
2021/07/11 04:16:00;;;;;;;1.38;0.77;;;16.40;81.10;;;15.32;79.06;96090.81;4980930;28;20038;-72
2021/07/11 04:18:26;;;;;;;0.95;0.65;;;16.30;81.10;;;15.31;78.10;96083.91;4990507;28;20027;-72
2021/07/11 04:20:54;;;;;;;1.08;0.55;;;16.30;81.40;;;15.30;78.58;96083.09;4964618;28;20547;-72
2021/07/11 04:23:24;;;;;;;1.23;0.70;;;16.30;81.70;;;15.31;79.21;96084.72;4990750;28;20133;-72
2021/07/11 04:25:50;;;;;;;1.33;0.63;;;16.30;81.40;;;15.32;79.52;96086.34;4992043;28;20493;-72
2021/07/11 04:28:15;;;;;;;1.10;0.60;;;16.40;81.50;;;15.31;79.15;96087.38;4982320;28;20057;-72
2021/07/11 04:30:41;;;;;;;1.50;0.60;;;16.30;81.40;;;15.28;78.73;96079.84;4952984;28;20038;-72
2021/07/11 04:33:10;;;;;;;2.15;0.70;;;16.20;80.40;;;15.27;78.78;96088.84;4956990;28;20037;-72
2021/07/11 04:35:35;;;;;;;1.88;0.65;;;16.20;81.00;;;15.25;79.41;96084.78;4979136;28;20039;-71
2021/07/11 04:38:01;;;;;;;0.70;0.50;;;16.20;81.10;;;15.22;78.83;96080.75;5004711;28;20375;-71
2021/07/11 04:40:27;;;;;;;2.83;1.08;;;16.20;81.40;;;15.23;79.47;96077.06;4979319;28;20511;-70
2021/07/11 04:42:53;;;;;;;1.27;0.60;;;16.30;81.40;;;15.23;78.76;96079.72;4974222;28;20510;-71
2021/07/11 04:45:19;;;;;;;1.85;0.65;;;16.30;81.00;;;15.23;78.67;96077.06;5006244;28;20073;-71
2021/07/11 04:47:45;;;;;;;0.85;0.50;;;16.30;80.70;;;15.26;79.73;96081.91;4988805;28;20031;-71
2021/07/11 04:50:11;;;;;;;1.92;0.70;;;16.30;80.90;;;15.28;79.25;96089.66;4995938;28;20049;-71
2021/07/11 04:52:41;;;;;;;1.27;0.45;;;16.40;81.00;;;15.25;78.72;96090.91;4990760;28;20038;-71
2021/07/11 04:55:11;;;;;;;1.48;0.60;;;16.30;80.50;;;15.21;79.05;96095.03;4966059;28;20034;-71
2021/07/11 04:57:38;;;;;;;1.30;0.70;;;16.20;80.90;;;15.13;78.97;96097.94;4990578;28;20133;-71
2021/07/11 05:00:09;;;;;;;2.67;0.60;;;16.10;81.30;;;15.13;79.09;96103.22;4968962;28;20084;-71
2021/07/11 05:02:35;;;;;;;1.35;0.70;;;16.10;81.10;;;15.13;79.77;96092.63;4990981;28;20075;-71
2021/07/11 05:05:01;;;;;;;2.67;0.50;;;16.20;81.40;;;15.16;78.54;96102.81;4965462;28;20548;-71
2021/07/11 05:07:27;;;;;;;1.92;0.65;;;16.30;81.40;;;15.16;78.48;96097.53;4975796;28;20050;-71
2021/07/11 05:09:53;;;;;;;2.80;0.90;;;16.30;81.30;;;15.14;78.91;96104.84;4987892;28;20045;-71
2021/07/11 05:12:19;;;;;;;1.90;0.80;;;16.30;81.50;;;15.15;79.52;96106.47;4968087;28;20046;-71
2021/07/11 05:14:44;;;;;;;0.93;0.60;;;16.40;81.50;;;15.18;79.02;96107.91;4975664;28;20069;-71
2021/07/11 05:17:10;;;;;;;0.80;0.47;;;16.40;81.40;;;15.21;80.75;96102.97;4991706;28;20043;-71
2021/07/11 05:19:36;;;;;;;2.28;0.70;;;16.40;81.40;;;15.23;79.66;96100.09;5006245;28;20066;-71
2021/07/11 05:22:04;;;;;;;0.93;0.60;;;16.50;81.60;;;15.26;80.43;96103.13;4972106;28;20033;-70
2021/07/11 05:24:29;;;;;;;1.67;0.50;;;16.50;80.90;;;15.29;79.95;96102.69;4992222;28;20190;-71
2021/07/11 05:26:55;;;;;;;1.35;0.70;;;16.60;81.50;;;15.30;78.91;96109.59;4961101;28;20453;-71
2021/07/11 05:29:21;;;;;;;2.13;0.60;;;16.50;80.90;;;15.31;80.30;96100.63;4984938;28;20058;-71
2021/07/11 05:31:47;;;;;;;1.02;0.70;;;16.50;81.00;;;15.30;79.37;96104.31;4992848;28;20126;-71
2021/07/11 05:34:12;;;;;;;1.02;0.60;;;16.50;81.00;;;15.35;80.37;96102.84;4975054;28;20406;-71
2021/07/11 05:36:38;;;;;;;1.13;0.60;;;16.60;81.00;;;15.36;79.83;96102.59;4974889;28;20489;-71
2021/07/11 05:39:04;;;;;;;1.13;0.75;;;16.60;80.70;;;15.37;79.77;96098.94;4965892;28;20035;-71
2021/07/11 05:41:30;;;;;;;3.75;1.10;;;16.60;81.00;;;15.41;79.46;96096.69;4974476;28;20128;-73
2021/07/11 05:43:55;;;;;;;2.60;0.68;;;16.60;80.90;;;15.43;80.47;96091.97;4983445;28;20104;-69
2021/07/11 05:46:21;;;;;;;4.65;0.90;;;16.70;81.00;;;15.46;80.28;96096.81;4991180;28;20061;-71
2021/07/11 05:48:47;;;;;;;1.80;0.93;;;16.70;80.00;;;15.48;79.52;96100.06;5011435;28;20045;-74
2021/07/11 05:51:12;;;;;;;2.00;0.90;;;16.70;80.30;;;15.52;79.18;96109.19;5010834;28;20030;-72
2021/07/11 05:53:38;;;;;;;1.10;0.80;;;16.80;80.70;;;15.53;79.43;96105.50;5005784;28;20572;-72
2021/07/11 05:56:04;;;;;;;0.90;0.50;;;16.70;80.60;;;15.57;80.42;96101.38;4998941;28;20084;-71
2021/07/11 05:58:30;;;;;;;3.40;0.82;;;16.80;80.40;;;15.59;78.63;96102.00;4989794;28;20549;-72
2021/07/11 06:00:55;;;;;;;1.48;0.80;;;16.90;80.20;;;15.64;80.31;96110.13;4994964;28;20501;-71
2021/07/11 06:03:22;;;;;;;1.38;0.73;;;17.00;80.20;;;15.67;79.99;96109.69;4988257;28;20034;-71
2021/07/11 06:05:47;;;;;;;0.93;0.50;;;17.00;79.90;;;15.70;78.93;96109.25;4993570;28;20034;-71
2021/07/11 06:08:13;;;;;;;1.13;0.50;;;17.00;79.80;;;15.74;79.08;96115.72;4964988;28;20101;-71
2021/07/11 06:10:39;;;;;;;2.42;0.60;;;17.10;79.80;;;15.80;79.87;96114.84;4989941;28;20034;-71
2021/07/11 06:13:05;;;;;;;4.32;0.73;;;17.20;79.90;;;15.85;79.89;96122.97;4989873;28;20066;-71
2021/07/11 06:15:31;;;;;;;2.03;0.70;;;17.30;79.60;;;15.89;80.37;96121.47;4981051;28;20121;-70
2021/07/11 06:17:56;;;;;;;2.70;0.60;;;17.30;79.50;;;15.92;79.45;96118.38;4990878;28;20038;-71
2021/07/11 06:20:22;;;;;;;0.93;0.60;;;17.40;78.60;;;16.00;79.85;96119.09;4957654;28;20062;-71
2021/07/11 06:22:50;;;;;;;5.72;0.68;;;17.60;78.90;;;16.06;78.86;96123.50;4978448;28;20459;-71
2021/07/11 06:25:16;;;;;;;3.40;0.47;;;17.60;78.30;;;16.14;78.84;96125.88;4998728;28;20036;-70
2021/07/11 06:27:42;;;;;;;1.10;0.57;;;17.60;78.10;;;16.21;79.16;96131.91;4974787;28;20042;-72
2021/07/11 06:30:13;;;;;;;0.60;0.50;;;17.80;78.00;;;16.31;78.29;96134.06;4982986;28;20168;-72
2021/07/11 06:32:40;;;;;;;2.80;0.70;;;17.80;77.40;;;16.37;78.78;96126.00;4991352;28;20036;-72
2021/07/11 06:35:08;;;;;;;1.08;0.68;;;18.00;77.70;;;16.45;78.15;96128.31;4977184;28;20034;-72
2021/07/11 06:37:33;;;;;;;2.33;1.65;;;18.00;76.70;;;16.51;77.78;96138.03;4989782;28;20030;-71
2021/07/11 06:39:59;;;;;;;1.88;0.80;;;18.10;76.80;;;16.59;78.22;96144.09;4984845;28;20072;-73
2021/07/11 06:42:25;;;;;;;2.38;0.82;;;18.20;77.00;;;16.63;78.48;96143.41;5008870;28;20041;-72
2021/07/11 06:44:51;;;;;;;3.85;1.02;;;18.20;76.90;;;16.66;77.71;96142.97;4988066;28;20096;-72
2021/07/11 06:47:17;;;;;;;0.73;0.63;;;18.20;76.70;;;16.71;77.95;96148.44;4975730;28;20034;-72
2021/07/11 06:49:42;;;;;;;0.95;0.70;;;18.20;77.30;;;16.74;77.60;96147.16;5008972;28;20108;-72
2021/07/11 06:52:08;;;;;;;1.65;0.85;;;18.20;77.30;;;16.78;77.97;96143.84;4945463;28;20034;-74
2021/07/11 06:54:34;;;;;;;2.33;0.90;;;18.30;76.90;;;16.79;77.12;96148.13;4981992;28;20514;-71
2021/07/11 06:57:00;;;;;;;1.83;0.75;;;18.20;75.40;;;16.78;76.35;96143.03;5003423;28;20116;-72
2021/07/11 06:59:25;;;;;;;0.93;0.63;;;18.20;75.30;;;16.81;76.59;96153.22;5008059;28;20066;-72
2021/07/11 07:01:51;;;;;;;2.28;1.20;;;18.20;75.00;;;16.82;76.80;96162.78;5008437;28;20068;-72
2021/07/11 07:04:17;;;;;;;2.45;1.40;;;18.20;76.10;;;16.82;76.94;96160.13;5004244;28;20066;-71
2021/07/11 07:06:42;;;;;;;2.08;1.00;;;18.20;76.60;;;16.84;76.60;96164.19;5005901;28;20551;-70
2021/07/11 07:09:08;;;;;;;2.85;1.20;;;18.30;76.60;;;16.88;77.32;96163.72;4976323;28;20549;-70
2021/07/11 07:11:34;;;;;;;1.92;0.60;;;18.30;76.80;;;16.87;76.78;96167.44;4969963;28;20034;-73
2021/07/11 07:14:00;;;;;;;1.27;0.70;;;18.20;76.40;;;16.84;76.89;96169.50;5001646;28;20061;-70
2021/07/11 07:16:25;;;;;;;5.28;1.00;;;18.10;76.00;;;16.84;77.01;96168.69;4992518;28;20056;-70
2021/07/11 07:18:51;;;;;;;1.00;0.80;;;18.20;76.50;;;16.88;77.03;96164.53;5000618;28;20026;-70
2021/07/11 07:21:17;;;;;;;1.52;0.90;;;18.30;77.10;;;16.91;77.01;96166.75;4983617;28;20095;-72
2021/07/11 07:23:44;;;;;;;1.63;1.02;;;18.30;77.10;;;16.96;77.04;96166.06;5001713;28;20241;-72
2021/07/11 07:26:10;;;;;;;1.67;0.98;;;18.40;77.10;;;16.97;77.35;96168.47;4999716;28;20033;-71
2021/07/11 07:28:36;;;;;;;1.75;0.95;;;18.50;76.90;;;17.00;77.29;96169.91;4985724;28;20038;-70
2021/07/11 07:31:01;;;;;;;2.17;0.80;;;18.40;76.00;;;17.00;77.40;96168.06;4993617;28;20058;-75
2021/07/11 07:33:27;;;;;;;0.95;0.70;;;18.40;76.40;;;17.03;76.93;96167.59;4958453;28;20537;-74
2021/07/11 07:35:53;;;;;;;3.97;0.80;;;18.50;76.50;;;17.04;76.69;96173.72;4987388;28;20027;-73
2021/07/11 07:38:18;;;;;;;1.05;0.57;;;18.30;76.20;;;17.04;76.81;96169.22;4991615;28;20065;-72
2021/07/11 07:40:44;;;;;;;0.95;0.70;;;18.40;76.30;;;17.02;76.58;96168.63;4995687;28;20037;-71
2021/07/11 07:43:13;;;;;;;1.48;0.63;;;18.30;76.10;;;17.02;76.54;96171.28;5005646;28;20034;-73
2021/07/11 07:45:43;;;;;;;2.80;1.17;;;18.30;76.50;;;17.04;76.46;96169.22;5005337;28;20049;-73
2021/07/11 07:48:10;;;;;;;1.77;1.10;;;18.40;76.70;;;17.05;76.49;96173.50;4972242;28;20037;-73
2021/07/11 07:50:37;;;;;;;2.42;1.20;;;18.40;76.50;;;17.06;77.19;96172.44;4992917;28;20038;-71
2021/07/11 07:53:03;;;;;;;1.60;0.75;;;18.50;76.70;;;17.11;76.94;96174.41;4958644;28;20661;-73
2021/07/11 07:55:30;;;;;;;1.17;0.80;;;18.60;76.60;;;17.10;76.44;96184.25;4988702;28;20042;-72
2021/07/11 07:57:56;;;;;;;2.25;1.58;;;18.40;76.40;;;17.10;76.73;96178.13;5002932;28;20049;-72
2021/07/11 08:00:22;;;;;;;3.08;1.25;;;18.50;76.90;;;17.11;76.87;96188.53;5001295;28;20034;-72
2021/07/11 08:02:47;;;;;;;3.45;1.80;;;18.60;77.10;;;17.18;77.06;96190.25;4965203;28;20506;-71
2021/07/11 08:05:13;;;;;;;1.23;0.70;;;18.60;76.60;;;17.17;76.44;96185.97;4986075;28;20525;-71
2021/07/11 08:07:39;;;;;;;1.55;0.80;;;18.50;75.40;;;17.19;76.25;96192.69;5007337;28;20037;-72
2021/07/11 08:10:06;;;;;;;1.25;0.90;;;18.60;75.90;;;17.20;76.18;96188.19;4956104;28;20191;-72
2021/07/11 08:12:32;;;;;;;1.02;0.77;;;18.60;76.60;;;17.24;75.99;96197.34;4986724;28;20049;-71
2021/07/11 08:14:58;;;;;;;1.50;0.80;;;18.60;76.50;;;17.18;76.60;96196.38;4989560;28;20625;-73
2021/07/11 08:17:23;;;;;;;1.67;0.93;;;18.40;76.40;;;17.14;76.12;96193.38;4989136;28;20077;-73
2021/07/11 08:19:49;;;;;;;1.20;0.70;;;18.40;76.40;;;17.13;76.63;96199.72;4968831;28;20042;-72
2021/07/11 08:22:15;;;;;;;1.77;1.15;;;18.50;76.60;;;17.13;76.48;96188.28;4996460;28;20026;-73
2021/07/11 08:24:41;;;;;;;1.05;0.80;;;18.50;76.70;;;17.11;76.50;96187.72;5009481;28;20555;-71
2021/07/11 08:27:06;;;;;;;1.63;0.90;;;18.50;76.40;;;17.14;76.30;96197.88;4985365;28;20054;-74
2021/07/11 08:29:32;;;;;;;2.58;0.88;;;18.50;77.10;;;17.13;76.40;96199.72;4975233;28;20129;-71
2021/07/11 08:31:58;;;;;;;1.90;0.90;;;18.40;75.60;;;17.10;76.61;96196.72;4991267;28;20038;-72
2021/07/11 08:34:24;;;;;;;2.50;1.02;;;18.60;76.00;;;17.14;75.91;96200.53;4991107;28;20035;-75
2021/07/11 08:36:52;;;;;;;1.08;0.90;;;18.50;75.70;;;17.10;76.24;96197.53;4973583;28;20494;-74
2021/07/11 08:39:18;;;;;;;1.50;0.93;;;18.40;76.00;;;17.11;76.30;96201.81;5012292;28;20117;-74
2021/07/11 08:41:45;;;;;;;1.02;0.90;;;18.50;75.80;;;17.10;76.29;96202.03;4995931;28;20030;-72
2021/07/11 08:44:11;;;;;;;1.08;0.77;;;18.50;75.80;;;17.15;76.12;96205.63;4951152;28;20409;-72
2021/07/11 08:46:38;;;;;;;1.33;0.98;;;18.60;75.40;;;17.19;75.84;96200.66;5002230;28;20112;-71
2021/07/11 08:49:03;;;;;;;1.20;0.90;;;18.80;75.80;;;17.24;75.87;96198.16;4978332;28;20056;-71
2021/07/11 08:51:29;;;;;;;1.45;0.95;;;18.70;76.10;;;17.24;76.07;96200.00;4981480;28;20030;-71
2021/07/11 08:53:55;;;;;;;3.83;1.80;;;18.60;76.40;;;17.25;76.41;96199.78;4989375;28;20125;-74
2021/07/11 08:56:23;;;;;;;1.58;1.08;;;18.70;76.00;;;17.25;76.47;96197.13;4990576;28;20030;-71
2021/07/11 08:58:55;;;;;;;1.52;1.00;;;18.70;75.50;;;17.27;75.94;96199.53;4966493;28;20051;-70
2021/07/11 09:01:26;;;;;;;2.72;0.85;;;18.70;75.70;;;17.29;76.85;96202.78;4963604;28;20031;-72
2021/07/11 09:04:06;;;;;;;1.42;0.80;;;18.70;76.10;;;17.32;76.38;96205.78;4979485;28;20045;-70
2021/07/11 09:07:15;;;;;;;1.87;0.93;;;18.80;75.10;;;17.38;76.94;96206.72;4991959;28;20069;-73
2021/07/11 09:09:40;;;;;;;1.45;0.88;;;18.90;75.10;;;17.41;76.36;96208.91;4969536;28;20341;-69
2021/07/11 09:12:08;;;;;;;1.73;0.80;;;18.90;75.40;;;17.44;75.71;96214.63;4967098;28;20032;-71
2021/07/11 09:14:40;;;;;;;2.42;1.30;;;19.00;75.40;;;17.51;76.58;96200.38;4963926;28;20502;-72
2021/07/11 09:17:06;;;;;;;1.73;1.35;;;19.20;75.80;;;17.59;76.69;96203.50;4959367;28;20450;-73
2021/07/11 09:19:48;;;;;;;2.13;1.10;;;19.30;74.40;;;17.68;75.08;96206.69;4974527;28;20038;-71
2021/07/11 09:22:16;;;;;;;1.92;1.10;;;19.40;73.70;;;17.77;75.97;96215.13;4972425;28;20035;-71
2021/07/11 09:24:56;;;;;;;1.48;1.10;;;19.50;73.50;;;17.86;76.31;96211.06;4978504;28;20133;-73
2021/07/11 09:27:27;;;;;;;2.78;1.10;;;19.60;73.90;;;17.91;75.50;96206.69;4958254;28;20042;-71
2021/07/11 09:30:00;;;;;;;3.90;1.27;;;19.60;72.80;;;18.00;75.77;96209.78;4974958;28;20102;-71
2021/07/11 09:32:28;;;;;;;2.33;1.40;;;19.70;73.60;;;18.05;75.58;96207.25;4978824;28;20049;-71
2021/07/11 09:34:54;;;;;;;3.45;1.42;;;19.80;73.40;;;18.12;74.60;96207.94;4973984;28;20169;-72
2021/07/11 09:37:22;;;;;;;2.05;1.17;;;20.00;72.40;;;18.20;74.49;96210.25;5006510;28;20116;-72
2021/07/11 09:39:57;;;;;;;2.33;1.73;;;20.00;72.40;;;18.24;74.44;96206.06;4977760;28;20604;-71
2021/07/11 09:42:44;;;;;;;2.20;1.50;;;20.10;71.40;;;18.35;73.47;96217.75;4992466;28;20088;-69
2021/07/11 09:45:22;;;;;;;4.22;1.20;;;20.30;71.00;;;18.46;74.04;96208.09;4996314;28;20034;-70
2021/07/11 09:47:55;;;;;;;2.53;1.25;;;20.30;70.90;;;18.53;74.26;96206.91;4992906;28;20054;-70
2021/07/11 09:50:23;;;;;;;3.70;1.30;;;20.40;70.50;;;18.66;73.19;96211.19;4951218;28;20089;-72
2021/07/11 09:52:51;;;;;;;3.28;1.10;;;20.80;69.50;;;18.83;74.12;96206.75;4980982;28;20259;-72
2021/07/11 09:55:19;;;;;;;1.60;1.10;;;20.90;70.10;;;19.08;74.26;96216.25;4989293;28;20045;-72
2021/07/11 09:57:48;;;;;;;4.95;4.30;;;21.50;68.90;;;19.44;72.37;96207.78;5009664;28;20044;-72
2021/07/11 10:00:22;;;;;;;3.97;2.05;;;22.20;64.70;;;20.00;72.17;96205.22;4961762;28;20046;-72
2021/07/11 10:02:51;;;;;;;2.50;1.08;;;23.40;63.70;;;20.48;71.10;96207.22;4996669;28;20060;-72
2021/07/11 10:05:17;;;;;;;4.15;1.65;;;23.50;61.20;;;20.90;70.52;96212.00;4974347;28;20046;-72
2021/07/11 10:07:43;;;;;;;1.35;1.02;;;24.10;58.20;;;21.29;69.51;96210.00;4965037;28;20433;-72
2021/07/11 10:10:11;;;;;;;3.40;1.33;;;24.80;57.40;;;21.89;68.85;96204.31;4975756;28;20041;-70
2021/07/11 10:12:37;;;;;;;3.10;1.30;;;25.40;55.80;;;22.45;68.24;96196.63;4975217;28;20113;-69
2021/07/11 10:15:12;;;;;;;3.83;1.40;;;26.50;54.10;;;22.94;64.26;96192.81;4991763;28;20468;-70
2021/07/11 10:18:08;;;;;;;2.95;1.65;;;26.20;52.70;;;23.58;61.78;96193.19;4991112;28;20391;-70
2021/07/11 10:20:47;;;;;;;3.47;1.30;;;27.40;50.50;;;24.17;59.57;96189.88;5009400;28;20034;-70
2021/07/11 10:23:45;;;;;;;2.60;0.93;;;27.80;49.20;;;24.77;58.58;96193.44;4981158;28;20045;-76